Time;durP1;ratioP1;P1;durP2;ratioP2;P2;SDS_P1;SDS_P2;PMS_P1;PMS_P2;Temp;Humidity;BMP_temperature;BMP_pressure;BME280_temperature;BME280_humidity;BME280_pressure;Samples;Min_cycle;Max_cycle;Signal;HPM_P1;HPM_P2
2023/06/03 00:01:03;;;;;;;11.83;10.93;;;;;;;16.49;95.31;92496.28;5001716;28;20234;-78
2023/06/03 00:03:31;;;;;;;10.83;10.23;;;;;;;16.40;95.52;92515.81;5014906;28;20210;-79
2023/06/03 00:05:58;;;;;;;11.40;10.60;;;;;;;16.05;94.81;92473.78;5008042;28;20227;-79
2023/06/03 00:08:24;;;;;;;11.27;10.40;;;;;;;16.62;93.72;92542.75;5017004;28;20176;-78
2023/06/03 00:10:50;;;;;;;10.77;10.00;;;;;;;16.55;93.93;92560.91;5016569;28;20326;-78
2023/06/03 00:13:15;;;;;;;10.33;9.83;;;;;;;16.68;92.46;92543.34;5013887;28;20188;-79
2023/06/03 00:15:41;;;;;;;11.23;10.30;;;;;;;16.50;92.29;92542.63;5020147;28;20223;-78
2023/06/03 00:18:07;;;;;;;10.43;9.63;;;;;;;16.66;91.54;92541.03;5032702;28;20210;-78
2023/06/03 00:20:35;;;;;;;11.50;10.80;;;;;;;16.65;91.29;92542.13;5016357;28;20716;-79
2023/06/03 00:23:05;;;;;;;10.17;9.43;;;;;;;16.77;90.70;92552.75;5011833;28;20177;-78
2023/06/03 00:25:31;;;;;;;12.07;11.17;;;;;;;16.93;89.88;92553.78;5020724;28;20238;-78
2023/06/03 00:27:56;;;;;;;10.67;9.70;;;;;;;16.33;88.85;92466.25;5014171;28;20191;-77
2023/06/03 00:30:22;;;;;;;11.37;10.67;;;;;;;16.94;87.93;92547.41;5012554;28;20890;-79
2023/06/03 00:32:47;;;;;;;11.13;10.37;;;;;;;16.93;88.13;92543.22;5012684;28;20167;-79
2023/06/03 00:35:13;;;;;;;10.90;10.20;;;;;;;16.65;87.07;92547.38;5013641;28;20313;-79
2023/06/03 00:37:39;;;;;;;10.67;10.07;;;;;;;16.90;87.53;92562.28;5013083;28;20218;-78
2023/06/03 00:40:05;;;;;;;11.33;10.53;;;;;;;16.87;88.54;92518.09;5013036;28;20223;-79
2023/06/03 00:42:31;;;;;;;10.73;10.13;;;;;;;17.07;88.97;92558.81;5012578;28;20717;-79
2023/06/03 00:44:56;;;;;;;11.33;10.53;;;;;;;16.64;91.66;92500.25;5015153;28;20215;-79
2023/06/03 00:47:21;;;;;;;11.47;10.60;;;;;;;16.68;92.29;92549.41;5018994;28;20214;-78
2023/06/03 00:49:47;;;;;;;10.40;9.77;;;;;;;16.88;91.69;92553.94;5011707;28;20223;-79
2023/06/03 00:52:14;;;;;;;10.37;9.63;;;;;;;16.65;91.29;92507.84;5012382;28;20234;-78
2023/06/03 00:54:40;;;;;;;11.70;10.80;;;;;;;16.84;90.50;92539.09;5012268;28;21093;-79
2023/06/03 00:57:06;;;;;;;10.93;10.23;;;;;;;17.02;89.78;92549.22;5012252;28;20306;-78
2023/06/03 00:59:32;;;;;;;12.10;11.30;;;;;;;16.95;89.31;92535.75;5017469;28;20222;-79
2023/06/03 01:01:58;;;;;;;10.87;10.27;;;;;;;16.88;89.33;92524.94;5014392;28;20247;-78
2023/06/03 01:04:26;;;;;;;11.50;10.70;;;;;;;16.67;89.57;92492.47;5012653;28;20314;-79
2023/06/03 01:06:55;;;;;;;11.30;10.60;;;;;;;16.62;90.00;92539.34;5024879;28;20274;-79
2023/06/03 01:09:39;;;;;;;11.47;10.57;;;;;;;16.75;90.19;92525.16;5015047;28;20298;-78
2023/06/03 01:12:07;;;;;;;11.33;10.53;;;;;;;16.94;89.67;92528.94;5016610;28;20222;-78
2023/06/03 01:14:45;;;;;;;11.80;11.00;;;;;;;16.90;88.81;92528.00;4995201;28;20295;-78
2023/06/03 01:17:14;;;;;;;10.97;10.23;;;;;;;16.76;88.36;92501.09;5014979;28;20199;-78
2023/06/03 01:19:49;;;;;;;11.10;10.50;;;;;;;16.71;88.29;92500.53;5011399;28;20239;-78
2023/06/03 01:22:20;;;;;;;11.67;10.87;;;;;;;16.62;89.00;92492.66;5010998;28;20194;-78
2023/06/03 01:24:48;;;;;;;10.67;9.90;;;;;;;16.74;89.37;92524.41;5011705;28;20228;-78
2023/06/03 01:27:13;;;;;;;11.90;11.10;;;;;;;16.31;90.74;92462.41;5011955;28;20206;-78
2023/06/03 01:29:43;;;;;;;11.67;10.90;;;;;;;16.38;90.85;92457.38;5021787;28;20286;-77
2023/06/03 01:32:12;;;;;;;11.00;10.30;;;;;;;16.68;91.19;92514.34;5011168;28;20207;-74
2023/06/03 01:34:39;;;;;;;11.70;10.90;;;;;;;16.61;91.45;92525.38;4994623;28;20219;-77
2023/06/03 01:37:06;;;;;;;11.53;10.73;;;;;;;16.62;92.00;92532.22;5011662;28;20215;-71
2023/06/03 01:39:31;;;;;;;12.57;11.37;;;;;;;16.54;91.52;92533.00;5011143;28;20253;-72
2023/06/03 01:41:57;;;;;;;11.50;10.47;;;;;;;16.46;92.20;92539.09;5011744;28;20905;-70
2023/06/03 01:44:23;;;;;;;11.97;10.63;;;;;;;16.34;93.64;92528.41;5019136;28;20242;-67
2023/06/03 01:46:48;;;;;;;11.20;10.17;;;;;;;16.28;93.70;92532.28;5019002;28;20183;-69
2023/06/03 01:49:15;;;;;;;11.57;10.77;;;;;;;16.19;93.22;92528.16;5013214;28;20245;-68
2023/06/03 01:51:40;;;;;;;11.63;10.73;;;;;;;16.13;94.63;92532.00;5026818;28;20262;-71
2023/06/03 01:54:05;;;;;;;12.87;11.87;;;;;;;16.13;94.73;92540.69;5022147;28;20187;-72
2023/06/03 01:56:31;;;;;;;12.30;11.30;;;;;;;16.06;94.31;92540.41;5026693;28;20214;-71
2023/06/03 01:58:56;;;;;;;12.07;10.93;;;;;;;15.96;94.29;92530.97;5018157;28;20267;-71
2023/06/03 02:01:22;;;;;;;11.03;10.23;;;;;;;15.95;94.41;92523.38;5020471;28;20234;-68
2023/06/03 02:03:47;;;;;;;11.33;10.47;;;;;;;16.08;94.49;92538.22;5018427;28;20218;-70
2023/06/03 02:06:14;;;;;;;11.80;10.93;;;;;;;15.99;94.64;92538.25;5012498;28;20226;-69
2023/06/03 02:08:39;;;;;;;11.20;10.40;;;;;;;15.96;94.70;92546.00;5019418;28;20180;-69
2023/06/03 02:11:04;;;;;;;12.30;11.30;;;;;;;15.87;95.13;92545.22;5023968;28;20246;-74
2023/06/03 02:13:30;;;;;;;11.70;10.80;;;;;;;15.70;95.46;92516.31;5008043;28;20217;-73
2023/06/03 02:15:55;;;;;;;10.77;10.17;;;;;;;15.62;95.96;92514.44;5009222;28;20718;-75
2023/06/03 02:18:21;;;;;;;11.33;10.53;;;;;;;15.59;97.36;92533.50;5015310;28;20422;-74
2023/06/03 02:20:46;;;;;;;10.97;10.27;;;;;;;15.68;96.47;92542.16;5010476;28;20955;-74
2023/06/03 02:23:11;;;;;;;12.17;11.27;;;;;;;15.90;95.26;92536.72;5010579;28;20192;-73
2023/06/03 02:25:37;;;;;;;12.27;11.37;;;;;;;15.82;95.48;92546.19;5010834;28;20287;-74
2023/06/03 02:28:06;;;;;;;14.43;11.50;;;;;;;15.80;95.61;92537.03;5014211;28;20189;-73
2023/06/03 02:30:31;;;;;;;12.97;12.03;;;;;;;15.79;95.45;92540.75;5009875;28;20223;-73
2023/06/03 02:32:57;;;;;;;12.90;11.90;;;;;;;15.94;94.63;92537.63;5010180;28;20228;-75
2023/06/03 02:35:22;;;;;;;11.93;11.23;;;;;;;15.88;94.24;92523.88;5009592;28;20238;-77
2023/06/03 02:37:48;;;;;;;11.17;10.47;;;;;;;15.98;94.51;92549.84;5010698;28;20191;-79
2023/06/03 02:40:13;;;;;;;11.50;10.80;;;;;;;15.81;94.45;92530.69;4992970;28;20227;-78
2023/06/03 02:42:39;;;;;;;12.20;11.40;;;;;;;16.07;94.57;92560.38;5014604;28;20268;-79
2023/06/03 02:45:05;;;;;;;11.80;11.10;;;;;;;15.95;95.42;92562.88;5009975;28;20215;-78
2023/06/03 02:47:30;;;;;;;12.27;11.27;;;;;;;15.88;95.17;92546.78;5010166;28;20179;-78
2023/06/03 02:49:56;;;;;;;11.90;10.87;;;;;;;15.92;95.79;92552.97;5010767;28;20253;-79
2023/06/03 02:52:23;;;;;;;12.57;11.57;;;;;;;15.77;95.88;92529.75;5010708;28;20191;-79
2023/06/03 02:54:52;;;;;;;11.67;10.93;;;;;;;15.93;96.35;92554.50;5010183;28;20215;-79
2023/06/03 02:57:17;;;;;;;11.20;10.30;;;;;;;15.92;96.33;92550.34;5013989;28;20222;-79
2023/06/03 02:59:42;;;;;;;12.13;11.13;;;;;;;15.97;96.39;92552.78;5010147;28;20227;-79
2023/06/03 03:02:08;;;;;;;12.17;11.37;;;;;;;16.13;95.64;92551.22;5012714;28;20720;-79
2023/06/03 03:04:36;;;;;;;12.03;10.93;;;;;;;16.42;95.04;92569.75;5009843;28;20667;-79
2023/06/03 03:07:05;;;;;;;12.13;11.13;;;;;;;16.51;94.54;92582.94;5010689;28;20891;-79
2023/06/03 03:09:31;;;;;;;11.67;10.83;;;;;;;16.65;92.49;92552.66;5009523;28;20238;-79
2023/06/03 03:11:56;;;;;;;12.80;11.80;;;;;;;16.74;92.39;92577.13;5012902;28;20218;-79
2023/06/03 03:14:22;;;;;;;11.63;10.73;;;;;;;16.68;92.80;92588.94;5010943;28;20243;-79
2023/06/03 03:16:47;;;;;;;11.60;10.70;;;;;;;16.52;93.81;92580.00;5010458;28;20207;-79
2023/06/03 03:19:14;;;;;;;10.43;9.73;;;;;;;16.46;94.04;92564.66;5009869;28;21132;-79
2023/06/03 03:21:39;;;;;;;12.30;11.20;;;;;;;16.34;94.33;92560.03;5009430;28;20183;-79
2023/06/03 03:24:05;;;;;;;11.63;10.80;;;;;;;16.45;95.34;92590.22;4997777;28;20218;-79
2023/06/03 03:26:32;;;;;;;11.50;10.70;;;;;;;16.59;95.57;92598.72;4996933;28;20190;-79
2023/06/03 03:28:58;;;;;;;11.60;10.83;;;;;;;16.53;94.97;92592.06;5010246;28;20210;-79
2023/06/03 03:31:23;;;;;;;12.90;11.90;;;;;;;16.52;95.23;92603.72;5010651;28;20179;-79
2023/06/03 03:33:49;;;;;;;12.10;11.23;;;;;;;16.40;95.29;92587.75;5017083;28;20235;-79
2023/06/03 03:36:36;;;;;;;11.80;11.10;;;;;;;16.44;94.65;92578.16;5016381;28;20238;-79
2023/06/03 03:39:05;;;;;;;12.17;11.30;;;;;;;16.45;96.61;92600.00;5008962;28;20197;-76
2023/06/03 03:41:31;;;;;;;11.53;10.83;;;;;;;16.43;97.22;92592.38;5014942;28;20180;-76
2023/06/03 03:43:57;;;;;;;13.37;12.37;;;;;;;16.52;96.83;92605.56;5010376;28;20219;-80
2023/06/03 03:46:23;;;;;;;13.13;12.17;;;;;;;16.20;96.96;92551.53;5006197;28;20196;-80
2023/06/03 03:48:48;;;;;;;12.63;11.73;;;;;;;16.65;96.87;92615.16;5012709;28;20199;-79
2023/06/03 03:51:13;;;;;;;11.23;10.50;;;;;;;16.54;97.61;92625.25;5010712;28;20258;-76
2023/06/03 03:53:43;;;;;;;14.10;13.00;;;;;;;16.63;97.41;92623.38;5012346;28;20890;-75
2023/06/03 03:56:09;;;;;;;11.93;10.93;;;;;;;16.28;96.18;92576.31;5012057;28;20326;-75
2023/06/03 03:58:42;;;;;;;12.70;11.70;;;;;;;16.46;95.92;92575.97;5012420;28;20775;-75
2023/06/03 04:01:12;;;;;;;12.20;11.50;;;;;;;16.81;95.70;92629.38;5010280;28;20293;-75
2023/06/03 04:03:42;;;;;;;11.87;11.03;;;;;;;16.61;95.49;92608.94;5008634;28;20206;-75
2023/06/03 04:06:09;;;;;;;13.17;12.17;;;;;;;16.75;95.75;92627.97;4994260;28;20229;-76
2023/06/03 04:08:48;;;;;;;12.37;11.47;;;;;;;16.64;97.93;92624.16;5011992;28;20195;-78
2023/06/03 04:11:22;;;;;;;11.47;10.67;;;;;;;16.73;98.02;92633.56;5011034;28;20250;-77
2023/06/03 04:13:48;;;;;;;11.67;10.97;;;;;;;16.68;97.93;92609.25;5011441;28;20199;-71
2023/06/03 04:16:42;;;;;;;13.47;12.57;;;;;;;16.73;97.40;92612.47;5009917;28;20287;-77
2023/06/03 04:19:36;;;;;;;12.10;11.20;;;;;;;16.92;95.45;92620.00;5010119;28;20222;-78
2023/06/03 04:22:05;;;;;;;11.80;10.90;;;;;;;16.77;96.49;92618.69;5009078;28;20195;-77
2023/06/03 04:24:35;;;;;;;11.87;10.87;;;;;;;16.96;94.77;92616.44;5011609;28;20235;-78
2023/06/03 04:27:02;;;;;;;12.27;11.37;;;;;;;17.00;94.58;92633.16;5011545;28;20201;-77
2023/06/03 04:29:30;;;;;;;13.60;12.60;;;;;;;17.14;93.76;92636.38;5012430;28;20300;-76
2023/06/03 04:31:56;;;;;;;11.17;10.47;;;;;;;17.19;92.72;92625.63;5011675;28;20183;-75
2023/06/03 04:34:21;;;;;;;12.83;11.73;;;;;;;17.33;91.80;92633.31;5011205;28;20242;-76
2023/06/03 04:36:47;;;;;;;12.33;11.23;;;;;;;17.31;91.58;92620.44;5010826;28;20234;-73
2023/06/03 04:39:12;;;;;;;11.67;10.67;;;;;;;17.38;92.47;92633.94;5008669;28;20290;-76
2023/06/03 04:41:38;;;;;;;11.50;10.60;;;;;;;17.62;91.79;92627.28;5010770;28;20192;-77
2023/06/03 04:44:04;;;;;;;11.53;10.50;;;;;;;17.67;91.19;92629.72;5010819;28;20198;-77
2023/06/03 04:46:29;;;;;;;11.60;10.70;;;;;;;17.79;90.74;92627.94;4993923;28;20251;-76
2023/06/03 04:49:02;;;;;;;12.33;11.13;;;;;;;17.89;89.48;92622.28;5011016;28;20194;-78
2023/06/03 04:51:29;;;;;;;12.60;11.60;;;;;;;18.00;89.41;92636.66;5011181;28;20183;-72
2023/06/03 04:53:58;;;;;;;11.23;10.43;;;;;;;18.04;89.29;92626.22;5002916;28;20192;-73
2023/06/03 04:56:24;;;;;;;12.33;11.53;;;;;;;18.09;89.30;92621.50;5010158;28;20279;-73
2023/06/03 04:58:54;;;;;;;10.97;9.93;;;;;;;18.34;87.43;92635.56;5010892;28;20290;-73
2023/06/03 05:01:22;;;;;;;11.83;11.03;;;;;;;18.39;87.12;92635.41;5007206;28;20210;-73
2023/06/03 05:03:48;;;;;;;11.47;10.67;;;;;;;18.59;84.75;92645.16;5009341;28;20192;-72
2023/06/03 05:06:13;;;;;;;11.60;10.60;;;;;;;18.59;85.19;92645.16;5007933;28;20227;-73
2023/06/03 05:08:39;;;;;;;12.00;11.00;;;;;;;18.30;85.87;92642.63;5003976;28;20190;-72
2023/06/03 05:11:05;;;;;;;12.20;11.23;;;;;;;18.69;83.31;92658.00;5016591;28;20228;-73
2023/06/03 05:13:31;;;;;;;11.33;10.63;;;;;;;18.06;84.59;92666.28;5006832;28;20196;-72
2023/06/03 05:15:56;;;;;;;12.37;11.23;;;;;;;18.21;84.45;92644.56;5010544;28;20319;-73
2023/06/03 05:18:22;;;;;;;12.37;11.37;;;;;;;17.75;87.29;92663.22;5010871;28;20204;-73
2023/06/03 05:20:47;;;;;;;12.73;11.67;;;;;;;18.34;83.77;92669.94;5010310;28;20220;-70
2023/06/03 05:23:13;;;;;;;11.80;10.90;;;;;;;18.91;81.69;92662.91;4999656;28;20223;-73
2023/06/03 05:25:38;;;;;;;12.00;10.83;;;;;;;19.05;80.49;92660.72;5010304;28;20215;-73
2023/06/03 05:28:05;;;;;;;11.43;10.63;;;;;;;19.13;80.03;92671.22;5010852;28;20209;-72
2023/06/03 05:30:31;;;;;;;12.10;10.93;;;;;;;19.08;80.78;92674.06;5010485;28;20227;-72
2023/06/03 05:32:56;;;;;;;11.47;10.67;;;;;;;19.43;78.26;92671.03;5008823;28;20227;-71
2023/06/03 05:35:22;;;;;;;12.20;11.30;;;;;;;19.47;76.87;92664.00;5009778;28;20251;-72
2023/06/03 05:37:47;;;;;;;12.30;11.20;;;;;;;19.63;76.34;92678.09;5009980;28;20287;-72
2023/06/03 05:40:12;;;;;;;13.17;10.43;;;;;;;19.71;76.17;92679.84;5009888;28;20228;-72
2023/06/03 05:42:38;;;;;;;11.90;11.00;;;;;;;19.80;76.23;92677.88;5010310;28;20211;-72
2023/06/03 05:45:04;;;;;;;11.93;11.13;;;;;;;19.65;77.21;92671.38;5005203;28;20296;-73
2023/06/03 05:47:30;;;;;;;11.77;10.90;;;;;;;20.03;74.72;92682.34;5010085;28;20193;-73
2023/06/03 05:49:56;;;;;;;11.93;11.03;;;;;;;20.03;77.01;92686.91;5009779;28;20230;-73
2023/06/03 05:52:21;;;;;;;10.77;10.17;;;;;;;19.88;76.95;92680.41;5009241;28;20198;-73
2023/06/03 05:54:47;;;;;;;11.53;10.63;;;;;;;19.88;77.31;92677.75;5002468;28;20248;-73
2023/06/03 05:57:12;;;;;;;12.63;11.63;;;;;;;20.09;77.61;92680.25;5009928;28;20198;-73
2023/06/03 05:59:37;;;;;;;11.27;10.37;;;;;;;20.43;74.04;92672.59;5010183;28;20283;-72
2023/06/03 06:02:03;;;;;;;11.37;10.57;;;;;;;20.51;74.94;92682.25;5010216;28;20191;-72
2023/06/03 06:04:28;;;;;;;11.80;11.00;;;;;;;20.96;73.10;92683.88;5007709;28;20296;-72
2023/06/03 06:06:54;;;;;;;11.87;10.73;;;;;;;21.21;72.04;92682.63;5010065;28;20198;-72
2023/06/03 06:09:20;;;;;;;11.53;10.53;;;;;;;21.60;71.18;92689.66;5008555;28;20257;-72
2023/06/03 06:11:45;;;;;;;13.47;10.20;;;;;;;20.99;71.50;92675.22;5009637;28;20233;-73
2023/06/03 06:14:12;;;;;;;10.40;9.60;;;;;;;21.24;71.43;92682.72;5009295;28;20187;-73
2023/06/03 06:16:37;;;;;;;11.10;10.20;;;;;;;22.14;67.97;92685.22;5006343;28;20234;-72
2023/06/03 06:19:02;;;;;;;10.98;10.05;;;;;;;22.55;65.46;92686.50;5009340;28;20203;-72
2023/06/03 06:21:28;;;;;;;11.90;11.00;;;;;;;22.62;61.94;92690.06;5009411;28;20194;-74
2023/06/03 06:23:53;;;;;;;11.00;10.20;;;;;;;22.49;61.09;92693.19;5007972;28;20183;-74
2023/06/03 06:26:20;;;;;;;11.18;10.38;;;;;;;21.81;65.90;92684.84;5009712;28;20186;-72
2023/06/03 06:28:46;;;;;;;11.02;10.02;;;;;;;21.41;70.53;92676.28;5009684;28;20187;-73
2023/06/03 06:31:15;;;;;;;11.05;10.23;;;;;;;22.03;68.38;92679.69;5001728;28;20253;-73
2023/06/03 06:33:47;;;;;;;11.52;10.63;;;;;;;22.51;67.66;92686.41;5009118;28;20253;-73
2023/06/03 06:36:37;;;;;;;10.85;10.02;;;;;;;22.76;62.85;92690.34;5008575;28;20220;-73
2023/06/03 06:39:02;;;;;;;11.10;10.20;;;;;;;22.60;63.08;92662.28;5008900;28;20181;-74
2023/06/03 06:41:27;;;;;;;11.13;10.23;;;;;;;22.84;62.48;92653.97;4991928;28;20238;-74
2023/06/03 06:43:56;;;;;;;10.57;9.88;;;;;;;23.07;62.25;92684.06;5009155;28;20455;-74
2023/06/03 06:46:24;;;;;;;11.73;10.25;;;;;;;22.80;65.64;92683.19;5009023;28;20872;-72
2023/06/03 06:48:49;;;;;;;10.52;9.82;;;;;;;23.01;63.45;92683.59;5009210;28;20187;-74
2023/06/03 06:51:19;;;;;;;10.80;10.02;;;;;;;23.31;60.32;92665.91;5008421;28;20255;-73
2023/06/03 06:53:48;;;;;;;11.18;10.30;;;;;;;22.70;61.47;92691.75;5000080;28;20215;-74
2023/06/03 06:56:15;;;;;;;10.35;9.73;;;;;;;23.59;59.10;92689.59;4998508;28;20305;-73
2023/06/03 06:58:40;;;;;;;11.70;10.63;;;;;;;23.26;59.78;92681.41;5011604;28;20185;-71
2023/06/03 07:01:06;;;;;;;10.48;9.70;;;;;;;22.72;61.64;92700.16;5011071;28;20267;-73
2023/06/03 07:03:33;;;;;;;11.50;10.70;;;;;;;22.77;62.50;92704.44;5010073;28;20185;-72
2023/06/03 07:05:59;;;;;;;9.85;9.13;;;;;;;22.79;61.59;92696.84;5011370;28;20225;-72
2023/06/03 07:08:25;;;;;;;10.65;9.82;;;;;;;22.75;62.48;92702.13;5008578;28;20188;-72
2023/06/03 07:10:54;;;;;;;11.57;10.60;;;;;;;22.44;65.32;92710.22;5011374;28;20235;-72
2023/06/03 07:13:20;;;;;;;11.48;10.48;;;;;;;22.26;66.19;92698.41;5010327;28;20212;-72
2023/06/03 07:15:45;;;;;;;10.27;9.57;;;;;;;22.30;63.49;92707.25;4989977;28;20204;-72
2023/06/03 07:18:11;;;;;;;10.77;9.98;;;;;;;22.35;63.43;92698.97;4992402;28;20277;-71
2023/06/03 07:20:40;;;;;;;10.10;9.20;;;;;;;22.24;63.30;92714.72;5009688;28;20224;-72
2023/06/03 07:23:21;;;;;;;10.85;10.00;;;;;;;22.33;64.94;92716.41;5013854;28;20185;-73
2023/06/03 07:25:51;;;;;;;11.05;10.15;;;;;;;22.33;64.10;92722.50;5009240;28;20894;-73
2023/06/03 07:28:18;;;;;;;10.65;9.95;;;;;;;22.49;62.85;92720.56;4995317;28;20261;-73
2023/06/03 07:30:47;;;;;;;11.38;10.35;;;;;;;22.58;60.69;92734.47;5005259;28;20234;-69
2023/06/03 07:33:28;;;;;;;11.90;10.98;;;;;;;22.48;64.27;92721.69;5016160;28;20178;-73
2023/06/03 07:35:59;;;;;;;10.50;9.80;;;;;;;22.65;62.90;92734.63;5019659;28;20251;-71
2023/06/03 07:38:36;;;;;;;12.27;11.07;;;;;;;22.29;63.21;92726.22;5014883;28;20247;-73
2023/06/03 07:41:02;;;;;;;11.75;10.75;;;;;;;22.46;62.63;92723.91;5009644;28;20224;-73
2023/06/03 07:43:28;;;;;;;11.23;10.18;;;;;;;22.66;62.55;92738.06;5014290;28;20198;-72
2023/06/03 07:45:53;;;;;;;12.00;10.85;;;;;;;22.20;64.84;92734.38;5008199;28;20240;-71
2023/06/03 07:48:19;;;;;;;11.32;10.52;;;;;;;22.53;63.07;92734.75;5013596;28;20214;-72
2023/06/03 07:50:46;;;;;;;12.48;11.02;;;;;;;22.88;62.11;92740.78;5014466;28;20232;-71
2023/06/03 07:53:22;;;;;;;12.05;11.05;;;;;;;22.35;63.50;92738.13;5011818;28;20177;-72
2023/06/03 07:55:49;;;;;;;11.32;10.52;;;;;;;22.56;64.00;92742.03;5014023;28;20243;-70
2023/06/03 07:58:16;;;;;;;11.50;10.60;;;;;;;22.51;63.64;92731.66;5012265;28;20261;-71
2023/06/03 08:00:48;;;;;;;11.77;10.75;;;;;;;22.57;62.84;92748.91;5009587;28;20237;-71
2023/06/03 08:03:18;;;;;;;12.20;11.13;;;;;;;22.41;64.07;92745.50;5014499;28;20200;-71
2023/06/03 08:05:47;;;;;;;13.13;12.00;;;;;;;22.98;61.78;92747.44;5012409;28;20235;-72
2023/06/03 08:08:14;;;;;;;11.10;10.23;;;;;;;23.39;61.22;92760.81;5014753;28;20194;-71
2023/06/03 08:10:44;;;;;;;12.48;11.32;;;;;;;22.75;65.58;92758.03;5011499;28;20238;-73
2023/06/03 08:13:12;;;;;;;13.20;11.90;;;;;;;24.09;59.75;92747.16;5013403;28;20199;-72
2023/06/03 08:15:38;;;;;;;11.70;10.80;;;;;;;23.98;60.31;92759.56;5012010;28;20228;-72
2023/06/03 08:18:08;;;;;;;11.55;10.73;;;;;;;24.01;58.92;92758.84;5013094;28;20205;-70
2023/06/03 08:20:35;;;;;;;10.70;9.70;;;;;;;23.25;62.41;92752.56;5020866;28;20307;-70
2023/06/03 08:23:02;;;;;;;10.82;9.88;;;;;;;23.85;59.43;92758.97;5012935;28;20194;-71
2023/06/03 08:25:27;;;;;;;10.75;9.85;;;;;;;23.47;60.06;92751.81;5015168;28;20230;-71
2023/06/03 08:27:53;;;;;;;10.15;9.45;;;;;;;23.92;59.44;92750.31;5012717;28;20180;-71
2023/06/03 08:30:22;;;;;;;10.68;9.90;;;;;;;22.53;62.72;92757.91;5008880;28;20229;-70
2023/06/03 08:32:49;;;;;;;10.98;10.18;;;;;;;22.60;65.26;92756.19;4992715;28;20197;-71
2023/06/03 08:35:18;;;;;;;11.23;10.10;;;;;;;23.45;60.99;92750.66;5017413;28;20234;-71
2023/06/03 08:37:44;;;;;;;11.45;10.45;;;;;;;23.48;61.34;92753.38;5012821;28;20220;-70
2023/06/03 08:40:11;;;;;;;10.65;9.73;;;;;;;23.04;63.61;92746.81;5014148;28;20217;-71
2023/06/03 08:42:45;;;;;;;9.77;9.10;;;;;;;23.95;59.28;92768.25;5014103;28;20181;-71
2023/06/03 08:45:12;;;;;;;10.77;9.88;;;;;;;23.59;60.51;92757.00;5011422;28;20913;-71
2023/06/03 08:47:57;;;;;;;10.20;9.40;;;;;;;23.91;59.21;92757.53;5012209;28;20190;-71
2023/06/03 08:50:25;;;;;;;10.85;10.05;;;;;;;23.52;61.42;92762.22;5015620;28;20244;-70
2023/06/03 08:52:55;;;;;;;9.80;9.20;;;;;;;23.29;60.76;92763.28;5014106;28;20210;-71
2023/06/03 08:55:21;;;;;;;10.20;9.40;;;;;;;22.33;64.70;92759.75;5013475;28;20230;-71
2023/06/03 08:57:58;;;;;;;9.52;8.93;;;;;;;22.82;63.41;92758.16;5015502;28;20212;-71
2023/06/03 09:00:26;;;;;;;10.70;9.93;;;;;;;22.16;66.39;92752.16;5012458;28;20230;-72
2023/06/03 09:02:51;;;;;;;10.00;9.40;;;;;;;23.14;62.75;92734.81;5015193;28;20942;-72
2023/06/03 09:05:19;;;;;;;9.85;9.00;;;;;;;23.92;59.79;92755.63;5027753;28;20228;-72
2023/06/03 09:07:47;;;;;;;10.13;9.40;;;;;;;23.37;61.45;92746.31;5013785;28;20185;-71
2023/06/03 09:10:17;;;;;;;9.85;9.25;;;;;;;23.51;62.60;92752.69;5004284;28;20242;-71
2023/06/03 09:12:44;;;;;;;11.25;9.50;;;;;;;23.32;62.51;92758.03;5012296;28;20330;-71
2023/06/03 09:15:11;;;;;;;9.38;8.65;;;;;;;23.05;61.30;92752.91;4996000;28;20233;-77
2023/06/03 09:17:36;;;;;;;10.70;9.88;;;;;;;22.98;63.33;92740.22;5012432;28;20247;-79
2023/06/03 09:20:04;;;;;;;10.10;9.50;;;;;;;23.34;60.48;92747.81;5015933;28;20297;-79
2023/06/03 09:22:30;;;;;;;9.00;8.45;;;;;;;23.31;61.85;92751.19;5005196;28;20182;-79
2023/06/03 09:24:56;;;;;;;10.25;9.55;;;;;;;22.75;61.24;92722.66;5006808;28;20231;-79
2023/06/03 09:27:22;;;;;;;9.70;9.00;;;;;;;23.77;59.38;92728.75;5010790;28;20191;-79
2023/06/03 09:29:47;;;;;;;9.80;9.18;;;;;;;23.67;61.05;92699.25;5011001;28;20233;-79
2023/06/03 09:32:12;;;;;;;9.75;9.25;;;;;;;24.09;56.72;92741.84;5010852;28;20186;-79
2023/06/03 09:34:39;;;;;;;9.82;9.02;;;;;;;24.04;58.22;92734.13;5011447;28;20261;-79
2023/06/03 09:37:08;;;;;;;9.98;9.27;;;;;;;24.11;57.90;92742.25;5010951;28;20206;-80
2023/06/03 09:39:35;;;;;;;10.13;9.52;;;;;;;23.68;57.55;92733.56;5009996;28;20233;-79
2023/06/03 09:42:02;;;;;;;9.38;8.65;;;;;;;24.36;57.36;92732.72;4993786;28;20178;-79
2023/06/03 09:44:40;;;;;;;9.60;8.98;;;;;;;24.52;56.20;92727.97;5009633;28;20226;-79
2023/06/03 09:47:06;;;;;;;9.27;8.45;;;;;;;23.80;59.18;92723.81;5004858;28;20218;-80
2023/06/03 09:49:32;;;;;;;9.07;8.40;;;;;;;23.80;59.07;92718.50;5012391;28;20251;-79
2023/06/03 09:51:57;;;;;;;8.27;7.82;;;;;;;24.01;56.46;92713.50;4996244;28;20191;-79
2023/06/03 09:54:23;;;;;;;9.00;8.40;;;;;;;23.93;58.10;92725.16;5013165;28;20238;-80
2023/06/03 09:56:51;;;;;;;8.35;7.88;;;;;;;23.92;57.50;92699.63;5012017;28;20226;-79
2023/06/03 09:59:25;;;;;;;8.73;8.23;;;;;;;23.94;58.87;92724.06;5011626;28;20301;-79
2023/06/03 10:01:53;;;;;;;8.60;8.20;;;;;;;24.31;56.97;92727.69;5011311;28;20186;-79
2023/06/03 10:04:39;;;;;;;8.52;8.02;;;;;;;24.00;58.40;92733.31;5012191;28;20246;-79
2023/06/03 10:07:17;;;;;;;9.65;8.85;;;;;;;24.24;56.35;92727.56;5013158;28;20199;-79
2023/06/03 10:09:47;;;;;;;9.02;8.52;;;;;;;23.71;59.68;92722.16;5005701;28;20231;-79
2023/06/03 10:12:14;;;;;;;9.50;8.93;;;;;;;23.53;56.32;92715.75;5011528;28;20223;-79
2023/06/03 10:14:47;;;;;;;8.50;7.97;;;;;;;23.57;55.50;92716.59;5009930;28;20234;-79
2023/06/03 10:17:14;;;;;;;9.02;8.43;;;;;;;22.59;58.30;92712.06;4995674;28;20211;-80
2023/06/03 10:19:42;;;;;;;8.63;8.10;;;;;;;23.48;58.18;92700.09;5010467;28;20264;-79
2023/06/03 10:22:09;;;;;;;7.97;7.50;;;;;;;24.51;53.43;92718.44;5010022;28;20189;-79
2023/06/03 10:24:38;;;;;;;8.65;8.15;;;;;;;24.54;52.16;92717.69;5010551;28;20245;-79
2023/06/03 10:27:04;;;;;;;7.00;6.70;;;;;;;24.51;51.32;92715.75;5016112;28;20190;-79
2023/06/03 10:29:30;;;;;;;8.90;8.40;;;;;;;24.06;52.40;92716.66;4993668;28;20235;-79
2023/06/03 10:31:56;;;;;;;8.65;8.05;;;;;;;24.23;50.34;92699.34;5019339;28;20208;-78
2023/06/03 10:34:22;;;;;;;7.30;6.90;;;;;;;24.00;47.99;92707.41;5028992;28;20278;-79
2023/06/03 10:36:52;;;;;;;6.97;6.68;;;;;;;24.12;46.31;92714.44;5029233;28;20216;-79
2023/06/03 10:39:19;;;;;;;7.32;6.95;;;;;;;24.50;45.17;92724.91;5016390;28;20238;-78
2023/06/03 10:41:45;;;;;;;7.93;7.25;;;;;;;24.16;46.54;92721.38;5010572;28;20255;-79
2023/06/03 10:44:11;;;;;;;7.85;7.40;;;;;;;24.41;47.30;92716.38;5021677;28;20199;-79
2023/06/03 10:46:45;;;;;;;8.50;8.00;;;;;;;24.57;47.24;92716.97;5017168;28;20193;-78
2023/06/03 10:49:14;;;;;;;8.48;7.97;;;;;;;25.03;46.43;92726.34;5027627;28;20189;-79
2023/06/03 10:51:48;;;;;;;8.68;8.18;;;;;;;25.24;46.72;92718.56;5029216;28;20190;-79
2023/06/03 10:54:16;;;;;;;8.48;7.97;;;;;;;25.54;47.28;92711.28;5020146;28;20232;-79
2023/06/03 10:56:59;;;;;;;8.43;7.93;;;;;;;24.67;47.91;92708.38;5028948;28;20277;-79
2023/06/03 10:59:28;;;;;;;8.15;7.75;;;;;;;25.20;47.31;92709.72;5016737;28;20257;-79
2023/06/03 11:02:01;;;;;;;7.90;7.45;;;;;;;25.35;45.90;92711.47;5014552;28;20254;-79
2023/06/03 11:04:29;;;;;;;7.85;7.47;;;;;;;25.38;45.58;92716.06;5008847;28;20263;-79
2023/06/03 11:06:55;;;;;;;8.15;7.72;;;;;;;25.31;44.85;92705.28;5010056;28;20197;-79
2023/06/03 11:09:35;;;;;;;7.90;7.40;;;;;;;25.32;44.53;92712.16;5012489;28;20282;-79
2023/06/03 11:12:13;;;;;;;7.80;7.40;;;;;;;25.09;48.71;92708.88;5010745;28;20226;-78
2023/06/03 11:14:42;;;;;;;8.35;7.75;;;;;;;24.74;47.78;92703.09;5010506;28;20222;-79
2023/06/03 11:17:12;;;;;;;7.97;7.57;;;;;;;25.21;44.88;92690.66;5014334;28;20222;-78
2023/06/03 11:19:45;;;;;;;8.48;8.02;;;;;;;25.22;44.92;92721.63;5016768;28;20229;-78
2023/06/03 11:22:13;;;;;;;8.00;7.53;;;;;;;25.09;46.73;92711.56;5011118;28;21044;-78
2023/06/03 11:24:38;;;;;;;8.23;7.63;;;;;;;24.98;47.14;92716.00;5010314;28;20858;-79